Voyageurs National Park, MN

10:00 AM CST die 06o March, anno 2015 (GMT -0600)
Falls International | Change Station
CLOSE
Current Station
Airport
Location: International Falls,
Elevation: 1181 ft
Nearby Weather Stations

Elev 1181 ft 48.56 °N, 93.40 °W | Updated 5 minutes ago

Serena
Serena
19 °F
Feels Like 8 °F
N
9
Ventus Variabilis Ventus from Magis Zephyrus quam Aquilo

Hodie
High -- | Low -- °F
--% Chance of Precip.
Yesterday
High -- | Low -- °F
Precip. -- in
6:45 AM 6:04 PM
Full, 99% visible
Pressio 30.02 in
Visibilitas 10.0 milia passuum
Clouds Serena
Frigus Venti 8 °F
Frigus in quo Ros apparet 5 °F
Umor 54%
Rainfall 0.00 in
Snow Depth Not available.
UV 2 out of 12
Pollen .10 out of 12
Air Quality Not available.
Flu Activity Not available.
METAR KINL 061555Z AUTO 29008KT 10SM CLR M07/M15 A2994 RMK AO2 SLP166 T10721150

More Conditions Fewer Conditions

Pressio 30.02 in
Visibilitas 10.0 milia passuum
Clouds Serena
Frigus Venti 8 °F
Frigus in quo Ros apparet 5 °F
Umor 54%
Rainfall 0.00 in
Snow Depth Not available.
UV 2 out of 12
Pollen .10 out of 12
Air Quality Not available.
Flu Activity Not available.
METAR KINL 061555Z AUTO 29008KT 10SM CLR M07/M15 A2994 RMK AO2 SLP166 T10721150

More Conditions Fewer Conditions

10-Day Weather Forecast

Almanac

Astronomy

Mar. 06, 2015 Rise Set
Actual Time
Civil Twilight
Nautical Twilight
Astronomical Twilight
Moon
Length Of Visible Light
Length of Day
Tomorrow will be .
, % of the Moon is Illuminated

Today's Extremes

State Highs State Lows

Community

WunderPhotos

Upload Photos

1,803,327 photos uploaded!

WunderBlogs® & News

Nearby

Air Quality

  Air Quality AQ Index Pollutant
Not available.

Snow Depth

Station Depth Elevation

Earthquake Activity

City Distance Mag. Time & Date
Minimum magnitude displayed is 2.5.

Coastal Water Temperatures

Locus Calor

Nearby Weather Stations